Aeroporto :
LOGIN :

Iscrizione | Disclaimer

   EN    FR    IT 

 










Sommario :    VFR   VFR Marginale   IFR   IFR Intensivo   IFR Molto Intensivo
Visibilità : 
Base nubi : 
>= 8 km
>= 3000ft
5 / 8 km
1000 / 3000 ft
1500m / 5 km
500 / 1000 ft
800 / 1500m
200 / 500 ft
< 800m
< 200 ft
Simboli :   Temporali  Nebbia  Neve Forte  Precipitazioni Forti  Vento > 20 kt
SIGMETs :   Varie  Temporali  Ghiacco  Turbolenza  Onda orograficha  Ceneri Vulcaniche






- Altitudine del aeroporto : 220 ft
- Codice IATA : CWL


EGFF - Cardiff Rhoose

ULTIMO METAR :
  • 221550Z 20003KT CAVOK 14/06 Q1021

METARs OBSOLETI :
  • 221520Z VRB03KT CAVOK 15/06 Q1022
  • 221450Z AUTO 28004KT 240V320 9999 NCD 15/06 Q1022
  • 221420Z AUTO 28004KT 240V320 9999 NCD 14/06 Q1022
  • 221350Z AUTO 21004KT 160V270 9999 NCD 15/08 Q1022
  • 221320Z AUTO 20004KT 160V250 9999 NCD 14/08 Q1023

TAF TAF EGFF
Valido dal 22 a 12 ore il 23 a 12 ore UTC


221056Z 2212/2312 VRB04KT 9999 SCT025
PROB30 2221/2223 6000
BECMG 2223/2302 3000 BR
PROB40 2300/2308 0300 FG VV///
BECMG 2308/2310 6000 NSW
BECMG 2310/2312 9999
ATIS : +44 1446 729 319



MetMap, La meteo Aeronautica in un colpo d'occhio ! - Copyright ORBIFLY Dicembre 2007 - Disclaimer

ORBIFLY MET'MAP TEAM :

Programmazione e sviluppo : Alexandra Zaïnal
Concezione e sviluppo : Baudouin d'Aumeries
Co-Programmazione e sviluppo : Marc-Olivier Méhu
Supporto tecnico e logistico : Manuel Goepfert
Aiuto per la traduzione : Arnaldo La Scala

Contatto : metmap@orbifly.com




FONTI E CREDITI :

   NOAA